DAAS

Ain Arnat Airport

Sétif, Algeria
METAR DAAS 231600Z 28008KT 8000 FEW010 SCT026 06/M04 Q1003
Observed Flight Rules
Feb-23 @ 16:00 UTC (37 minutes ago) Marginal Visual Flight Rules
Wind Visibility Clouds
280° at 8 knots 7,998 meters
  • Few at 1,000' AGL
  • Scattered at 2,600' AGL
Temperatures Readings
Current 6°C / 43°F
Dewpoint -4°C / 25°F
Humidity 49%
Altimeter 29.62" Hg
Pressure 1003 hPa
Elevation 1038
METAR DAAS 231600Z 28008KT 8000 FEW010 SCT026 06/M04 Q1003
Observed Flight Rules
Feb-23 @ 16:00 UTC
(37 minutes ago)
MVFR
Wind Visibility
280° at 8 knots 7,998 meters
Clouds
  • Few at 1,000' AGL
  • Scattered at 2,600' AGL
Temperature Dewpoint
6°C / 43°F -4°C / 25°F
Humidity Altimeter Pressure
49% 29.62" Hg 1003 hPa